sensor_id;sensor_type;location;lat;lon;timestamp;temperature;humidity
63960;DHT22;50136;51.374;0.096;2022-10-13T00:05:13;13.90;99.90
63960;DHT22;50136;51.374;0.096;2022-10-13T00:15:15;13.90;99.90
63960;DHT22;50136;51.374;0.096;2022-10-13T00:25:19;13.90;99.90
63960;DHT22;50136;51.374;0.096;2022-10-13T00:35:21;13.90;99.90
63960;DHT22;50136;51.374;0.096;2022-10-13T00:45:26;13.80;99.90
63960;DHT22;50136;51.374;0.096;2022-10-13T00:55:30;13.70;99.90
63960;DHT22;50136;51.374;0.096;2022-10-13T01:05:34;13.80;99.90
63960;DHT22;50136;51.374;0.096;2022-10-13T01:15:40;13.70;99.90
63960;DHT22;50136;51.374;0.096;2022-10-13T01:25:56;13.70;99.90
63960;DHT22;50136;51.374;0.096;2022-10-13T01:36:14;13.60;99.90
63960;DHT22;50136;51.374;0.096;2022-10-13T01:46:20;13.60;99.90
63960;DHT22;50136;51.374;0.096;2022-10-13T01:56:24;13.50;99.90
63960;DHT22;50136;51.374;0.096;2022-10-13T02:06:30;13.50;99.90
63960;DHT22;50136;51.374;0.096;2022-10-13T02:16:37;13.40;99.90
63960;DHT22;50136;51.374;0.096;2022-10-13T02:26:40;13.40;99.90
63960;DHT22;50136;51.374;0.096;2022-10-13T02:36:44;13.30;99.90
63960;DHT22;50136;51.374;0.096;2022-10-13T02:46:46;13.30;99.90
63960;DHT22;50136;51.374;0.096;2022-10-13T02:56:49;13.30;99.90
63960;DHT22;50136;51.374;0.096;2022-10-13T03:06:51;13.30;99.90
63960;DHT22;50136;51.374;0.096;2022-10-13T03:16:54;13.30;99.90
63960;DHT22;50136;51.374;0.096;2022-10-13T03:26:56;13.20;99.90
63960;DHT22;50136;51.374;0.096;2022-10-13T03:36:59;13.20;99.90
63960;DHT22;50136;51.374;0.096;2022-10-13T03:47:01;13.20;99.90
63960;DHT22;50136;51.374;0.096;2022-10-13T03:57:05;13.20;99.90
63960;DHT22;50136;51.374;0.096;2022-10-13T04:07:07;13.20;99.90
63960;DHT22;50136;51.374;0.096;2022-10-13T04:17:10;13.20;99.90
63960;DHT22;50136;51.374;0.096;2022-10-13T04:27:12;13.20;99.90
63960;DHT22;50136;51.374;0.096;2022-10-13T04:37:16;13.30;99.90
63960;DHT22;50136;51.374;0.096;2022-10-13T04:47:18;13.20;99.90
63960;DHT22;50136;51.374;0.096;2022-10-13T04:57:21;13.10;99.90
63960;DHT22;50136;51.374;0.096;2022-10-13T05:07:23;13.20;99.90
63960;DHT22;50136;51.374;0.096;2022-10-13T05:17:28;13.10;99.90
63960;DHT22;50136;51.374;0.096;2022-10-13T05:27:35;13.20;99.90
63960;DHT22;50136;51.374;0.096;2022-10-13T05:37:39;13.20;99.90
63960;DHT22;50136;51.374;0.096;2022-10-13T05:47:41;13.20;99.90
63960;DHT22;50136;51.374;0.096;2022-10-13T05:57:46;13.20;99.90
63960;DHT22;50136;51.374;0.096;2022-10-13T06:07:50;13.20;99.90
63960;DHT22;50136;51.374;0.096;2022-10-13T06:17:54;13.10;99.90
63960;DHT22;50136;51.374;0.096;2022-10-13T06:27:56;13.10;99.90
63960;DHT22;50136;51.374;0.096;2022-10-13T06:38:00;13.10;99.90
63960;DHT22;50136;51.374;0.096;2022-10-13T06:48:02;13.20;99.90
63960;DHT22;50136;51.374;0.096;2022-10-13T06:58:05;13.10;99.90
63960;DHT22;50136;51.374;0.096;2022-10-13T07:08:07;13.00;99.90
63960;DHT22;50136;51.374;0.096;2022-10-13T07:18:11;13.10;99.90
63960;DHT22;50136;51.374;0.096;2022-10-13T07:28:12;13.10;99.90
63960;DHT22;50136;51.374;0.096;2022-10-13T07:38:16;13.20;99.90
63960;DHT22;50136;51.374;0.096;2022-10-13T07:48:18;13.30;99.90
63960;DHT22;50136;51.374;0.096;2022-10-13T07:58:21;13.30;99.90
63960;DHT22;50136;51.374;0.096;2022-10-13T08:08:23;13.30;99.90
63960;DHT22;50136;51.374;0.096;2022-10-13T08:18:27;13.30;99.90
63960;DHT22;50136;51.374;0.096;2022-10-13T08:28:29;13.50;99.90
63960;DHT22;50136;51.374;0.096;2022-10-13T08:38:33;13.90;99.90
63960;DHT22;50136;51.374;0.096;2022-10-13T08:48:38;14.40;99.90
63960;DHT22;50136;51.374;0.096;2022-10-13T08:58:44;14.60;99.90
63960;DHT22;50136;51.374;0.096;2022-10-13T09:08:51;14.80;99.90
63960;DHT22;50136;51.374;0.096;2022-10-13T09:19:13;15.70;99.90
63960;DHT22;50136;51.374;0.096;2022-10-13T09:29:17;15.70;99.90
63960;DHT22;50136;51.374;0.096;2022-10-13T09:39:21;15.90;99.90
63960;DHT22;50136;51.374;0.096;2022-10-13T09:49:31;18.40;99.90
63960;DHT22;50136;51.374;0.096;2022-10-13T09:59:37;18.80;99.90
63960;DHT22;50136;51.374;0.096;2022-10-13T10:09:44;20.30;99.90
63960;DHT22;50136;51.374;0.096;2022-10-13T10:19:58;19.80;99.90
63960;DHT22;50136;51.374;0.096;2022-10-13T10:30:05;18.50;99.90
63960;DHT22;50136;51.374;0.096;2022-10-13T10:40:24;19.40;99.90
63960;DHT22;50136;51.374;0.096;2022-10-13T10:50:31;18.70;99.90
63960;DHT22;50136;51.374;0.096;2022-10-13T11:00:40;17.60;99.90
63960;DHT22;50136;51.374;0.096;2022-10-13T11:10:43;17.10;99.90
63960;DHT22;50136;51.374;0.096;2022-10-13T11:20:57;16.80;99.90
63960;DHT22;50136;51.374;0.096;2022-10-13T11:31:24;17.10;99.90
63960;DHT22;50136;51.374;0.096;2022-10-13T11:41:33;17.00;99.90
63960;DHT22;50136;51.374;0.096;2022-10-13T11:51:49;17.30;99.90
63960;DHT22;50136;51.374;0.096;2022-10-13T12:01:56;17.70;99.90
63960;DHT22;50136;51.374;0.096;2022-10-13T12:12:01;17.80;99.90
63960;DHT22;50136;51.374;0.096;2022-10-13T12:22:11;17.70;99.90
63960;DHT22;50136;51.374;0.096;2022-10-13T12:32:21;17.70;99.90
63960;DHT22;50136;51.374;0.096;2022-10-13T12:42:28;17.80;99.90
63960;DHT22;50136;51.374;0.096;2022-10-13T12:52:33;17.60;99.90
63960;DHT22;50136;51.374;0.096;2022-10-13T13:02:36;17.40;99.90
63960;DHT22;50136;51.374;0.096;2022-10-13T13:12:39;17.20;99.90
63960;DHT22;50136;51.374;0.096;2022-10-13T13:22:43;17.10;99.90
63960;DHT22;50136;51.374;0.096;2022-10-13T13:32:45;17.10;99.90
63960;DHT22;50136;51.374;0.096;2022-10-13T13:42:49;17.20;99.90
63960;DHT22;50136;51.374;0.096;2022-10-13T13:52:51;17.20;99.90
63960;DHT22;50136;51.374;0.096;2022-10-13T14:02:55;17.30;99.90
63960;DHT22;50136;51.374;0.096;2022-10-13T14:12:57;17.30;99.90
63960;DHT22;50136;51.374;0.096;2022-10-13T14:23:00;17.40;99.90
63960;DHT22;50136;51.374;0.096;2022-10-13T14:33:02;17.50;99.90
63960;DHT22;50136;51.374;0.096;2022-10-13T15:27:33;16.70;99.90
63960;DHT22;50136;51.374;0.096;2022-10-13T16:00:05;16.30;99.90
63960;DHT22;50136;51.374;0.096;2022-10-13T16:10:08;16.20;99.90
63960;DHT22;50136;51.374;0.096;2022-10-13T16:20:12;16.00;99.90
63960;DHT22;50136;51.374;0.096;2022-10-13T16:30:14;15.90;99.90
63960;DHT22;50136;51.374;0.096;2022-10-13T16:40:18;15.80;99.90
63960;DHT22;50136;51.374;0.096;2022-10-13T16:50:20;15.60;99.90
63960;DHT22;50136;51.374;0.096;2022-10-13T17:00:23;15.40;99.90
63960;DHT22;50136;51.374;0.096;2022-10-13T17:21:30;15.10;99.90
63960;DHT22;50136;51.374;0.096;2022-10-13T17:31:33;14.80;99.90
63960;DHT22;50136;51.374;0.096;2022-10-13T17:52:50;14.40;99.90
63960;DHT22;50136;51.374;0.096;2022-10-13T18:13:57;14.10;99.90
63960;DHT22;50136;51.374;0.096;2022-10-13T18:24:01;13.90;99.90
63960;DHT22;50136;51.374;0.096;2022-10-13T18:45:30;13.60;99.90
63960;DHT22;50136;51.374;0.096;2022-10-13T18:55:44;13.40;99.90
63960;DHT22;50136;51.374;0.096;2022-10-13T19:05:48;13.20;99.90
63960;DHT22;50136;51.374;0.096;2022-10-13T19:15:50;13.00;99.90
63960;DHT22;50136;51.374;0.096;2022-10-13T19:25:53;12.90;99.90
63960;DHT22;50136;51.374;0.096;2022-10-13T19:35:55;12.70;99.90
63960;DHT22;50136;51.374;0.096;2022-10-13T19:56:24;12.50;99.90
63960;DHT22;50136;51.374;0.096;2022-10-13T20:06:27;12.40;99.90
63960;DHT22;50136;51.374;0.096;2022-10-13T20:27:42;12.30;99.90
63960;DHT22;50136;51.374;0.096;2022-10-13T20:49:00;12.10;99.90
63960;DHT22;50136;51.374;0.096;2022-10-13T20:59:17;12.00;99.90
63960;DHT22;50136;51.374;0.096;2022-10-13T21:19:37;12.10;99.90
63960;DHT22;50136;51.374;0.096;2022-10-13T21:40:44;11.60;99.90
63960;DHT22;50136;51.374;0.096;2022-10-13T22:01:10;11.40;99.90
63960;DHT22;50136;51.374;0.096;2022-10-13T22:11:13;11.30;99.90
63960;DHT22;50136;51.374;0.096;2022-10-13T22:21:18;11.30;99.90
63960;DHT22;50136;51.374;0.096;2022-10-13T22:31:20;11.30;99.90
63960;DHT22;50136;51.374;0.096;2022-10-13T22:41:24;11.30;99.90
63960;DHT22;50136;51.374;0.096;2022-10-13T22:51:28;11.30;99.90
63960;DHT22;50136;51.374;0.096;2022-10-13T23:01:31;11.30;99.90
63960;DHT22;50136;51.374;0.096;2022-10-13T23:11:33;11.20;99.90
63960;DHT22;50136;51.374;0.096;2022-10-13T23:21:37;11.10;99.90
63960;DHT22;50136;51.374;0.096;2022-10-13T23:31:39;11.10;99.90
63960;DHT22;50136;51.374;0.096;2022-10-13T23:41:42;11.00;99.90
63960;DHT22;50136;51.374;0.096;2022-10-13T23:51:44;11.00;99.90
